Time;durP1;ratioP1;P1;durP2;ratioP2;P2;SDS_P1;SDS_P2;PMS_P1;PMS_P2;Temp;Humidity;BMP_temperature;BMP_pressure;BME280_temperature;BME280_humidity;BME280_pressure;Samples;Min_cycle;Max_cycle;Signal;HPM_P1;HPM_P2
2023/12/17 00:03:58;;;;;;;10.68;4.50;;;;;;;;;;10256155;28;20030;-63
2023/12/17 00:08:58;;;;;;;10.55;4.95;;;;;;;;;;10282737;28;20065;-65
2023/12/17 00:13:59;;;;;;;8.13;4.70;;;;;;;;;;10289359;28;20492;-65
2023/12/17 00:18:59;;;;;;;15.00;5.32;;;;;;;;;;10286978;28;20046;-65
2023/12/17 00:24:00;;;;;;;9.18;5.25;;;;;;;;;;10288788;28;20039;-63
2023/12/17 00:29:00;;;;;;;9.30;5.22;;;;;;;;;;10287866;28;20042;-62
2023/12/17 00:34:01;;;;;;;12.68;4.85;;;;;;;;;;10288241;28;20475;-62
2023/12/17 00:39:02;;;;;;;18.52;4.93;;;;;;;;;;10287643;28;20482;-62
2023/12/17 00:44:02;;;;;;;6.55;4.70;;;;;;;;;;10288324;28;20094;-62
2023/12/17 00:49:03;;;;;;;13.73;4.80;;;;;;;;;;10288512;28;20030;-62
2023/12/17 00:54:03;;;;;;;7.78;4.28;;;;;;;;;;10287409;28;20046;-62
2023/12/17 00:59:04;;;;;;;12.68;5.13;;;;;;;;;;10286625;28;20030;-62
2023/12/17 01:04:04;;;;;;;7.45;4.53;;;;;;;;;;10287687;28;20062;-62
2023/12/17 01:09:05;;;;;;;6.97;4.40;;;;;;;;;;10287013;28;20026;-62
2023/12/17 01:14:06;;;;;;;9.18;4.60;;;;;;;;;;10287047;28;20042;-64
2023/12/17 01:19:06;;;;;;;6.05;4.65;;;;;;;;;;10286613;28;20030;-63
2023/12/17 01:24:07;;;;;;;6.47;4.50;;;;;;;;;;10287259;28;20093;-63
2023/12/17 01:29:07;;;;;;;7.15;4.38;;;;;;;;;;10287122;28;20027;-64
2023/12/17 01:34:08;;;;;;;6.32;4.20;;;;;;;;;;10286466;28;20035;-62
2023/12/17 01:39:09;;;;;;;8.60;4.68;;;;;;;;;;10286277;28;20047;-62
2023/12/17 01:44:11;;;;;;;6.70;4.47;;;;;;;;;;10286655;28;20035;-62
2023/12/17 01:49:12;;;;;;;7.53;4.15;;;;;;;;;;10289476;28;20538;-62
2023/12/17 01:54:13;;;;;;;6.28;4.35;;;;;;;;;;10294275;28;20027;-62
2023/12/17 01:59:13;;;;;;;13.75;4.15;;;;;;;;;;10295632;28;20069;-62
2023/12/17 02:04:14;;;;;;;7.60;3.95;;;;;;;;;;10294333;28;20031;-62
2023/12/17 02:09:15;;;;;;;9.40;5.20;;;;;;;;;;10294035;28;20034;-62
2023/12/17 02:14:15;;;;;;;5.65;4.10;;;;;;;;;;10293619;28;20247;-62
2023/12/17 02:19:16;;;;;;;7.32;4.13;;;;;;;;;;10293211;28;20042;-62
2023/12/17 02:24:16;;;;;;;7.47;4.00;;;;;;;;;;10293451;28;20026;-62
2023/12/17 02:29:17;;;;;;;5.63;3.78;;;;;;;;;;10293529;28;20035;-62
2023/12/17 02:34:18;;;;;;;8.65;3.95;;;;;;;;;;10292752;28;20042;-62
2023/12/17 02:39:18;;;;;;;7.88;4.32;;;;;;;;;;10292419;28;20039;-62
2023/12/17 02:44:19;;;;;;;6.78;3.70;;;;;;;;;;10293194;28;20280;-61
2023/12/17 02:49:20;;;;;;;4.45;3.70;;;;;;;;;;10292383;28;20047;-64
2023/12/17 02:54:23;;;;;;;6.43;4.00;;;;;;;;;;10292764;28;20038;-64
2023/12/17 02:59:23;;;;;;;6.65;3.85;;;;;;;;;;10291764;28;20501;-63
2023/12/17 03:04:24;;;;;;;7.00;3.92;;;;;;;;;;10291673;28;20031;-63
2023/12/17 03:09:25;;;;;;;8.85;4.05;;;;;;;;;;10292018;28;20089;-62
2023/12/17 03:14:25;;;;;;;7.40;4.05;;;;;;;;;;10290323;28;20089;-63
2023/12/17 03:19:26;;;;;;;4.80;3.53;;;;;;;;;;10290888;28;20047;-63
2023/12/17 03:24:26;;;;;;;4.82;3.53;;;;;;;;;;10290728;28;20031;-63
2023/12/17 03:29:28;;;;;;;7.68;4.18;;;;;;;;;;10290437;28;20019;-63
2023/12/17 03:34:29;;;;;;;6.18;3.75;;;;;;;;;;10290323;28;20037;-63
2023/12/17 03:39:30;;;;;;;7.60;3.40;;;;;;;;;;10290263;28;20055;-63
2023/12/17 03:44:30;;;;;;;4.90;3.50;;;;;;;;;;10290522;28;20023;-63
2023/12/17 03:49:31;;;;;;;6.70;3.42;;;;;;;;;;10289894;28;20034;-63
2023/12/17 03:54:31;;;;;;;6.25;3.95;;;;;;;;;;10290049;28;20085;-63
2023/12/17 03:59:32;;;;;;;4.10;3.35;;;;;;;;;;10289454;28;20030;-63
2023/12/17 04:04:33;;;;;;;4.47;3.67;;;;;;;;;;10289393;28;20027;-63
2023/12/17 04:09:33;;;;;;;5.28;3.63;;;;;;;;;;10289507;28;20035;-63
2023/12/17 04:14:34;;;;;;;7.70;3.85;;;;;;;;;;10288902;28;20180;-62
2023/12/17 04:19:34;;;;;;;6.75;3.83;;;;;;;;;;10288787;28;20023;-62
2023/12/17 04:24:35;;;;;;;6.03;3.60;;;;;;;;;;10288664;28;20022;-62
2023/12/17 04:29:35;;;;;;;5.57;3.38;;;;;;;;;;10288921;28;20026;-62
2023/12/17 04:34:36;;;;;;;4.30;3.17;;;;;;;;;;10288530;28;20031;-62
2023/12/17 04:39:36;;;;;;;3.78;3.28;;;;;;;;;;10288217;28;20051;-62
2023/12/17 04:44:37;;;;;;;5.20;3.83;;;;;;;;;;10287929;28;20027;-62
2023/12/17 04:49:38;;;;;;;4.20;3.30;;;;;;;;;;10288022;28;20026;-62
2023/12/17 04:54:38;;;;;;;4.68;3.88;;;;;;;;;;10287841;28;20089;-62
2023/12/17 04:59:39;;;;;;;3.60;3.30;;;;;;;;;;10287386;28;20027;-62
2023/12/17 05:04:39;;;;;;;4.47;3.50;;;;;;;;;;10287576;28;20034;-62
2023/12/17 05:09:40;;;;;;;4.05;3.30;;;;;;;;;;10287513;28;20393;-62
2023/12/17 05:14:40;;;;;;;5.10;3.80;;;;;;;;;;10286859;28;20030;-63
2023/12/17 05:19:41;;;;;;;4.97;3.15;;;;;;;;;;10286670;28;20393;-64
2023/12/17 05:24:42;;;;;;;4.97;3.60;;;;;;;;;;10285776;28;20034;-63
2023/12/17 05:29:42;;;;;;;4.88;3.20;;;;;;;;;;10286643;28;20015;-63
2023/12/17 05:34:43;;;;;;;4.15;3.20;;;;;;;;;;10286544;28;20031;-62
2023/12/17 05:39:43;;;;;;;4.55;3.50;;;;;;;;;;10286192;28;20109;-64
2023/12/17 05:44:44;;;;;;;3.70;3.13;;;;;;;;;;10286256;28;20026;-63
2023/12/17 05:49:44;;;;;;;3.88;3.35;;;;;;;;;;10286662;28;20031;-64
2023/12/17 05:54:45;;;;;;;4.63;3.13;;;;;;;;;;10286786;28;20586;-64
2023/12/17 05:59:45;;;;;;;4.20;3.40;;;;;;;;;;10285899;28;20023;-64
2023/12/17 06:04:46;;;;;;;4.07;3.15;;;;;;;;;;10285967;28;20505;-63
2023/12/17 06:09:47;;;;;;;4.13;3.30;;;;;;;;;;10285944;28;20487;-63
2023/12/17 06:14:47;;;;;;;5.45;3.33;;;;;;;;;;10286049;28;20035;-63
2023/12/17 06:19:48;;;;;;;7.60;3.92;;;;;;;;;;10285977;28;20047;-63
2023/12/17 06:24:49;;;;;;;4.80;3.35;;;;;;;;;;10286213;28;20050;-63
2023/12/17 06:29:52;;;;;;;5.70;3.33;;;;;;;;;;10285457;28;20038;-63
2023/12/17 06:34:52;;;;;;;4.65;3.30;;;;;;;;;;10288434;28;20106;-63
2023/12/17 06:39:53;;;;;;;4.15;3.35;;;;;;;;;;10292637;28;20051;-62
2023/12/17 06:44:53;;;;;;;4.18;3.17;;;;;;;;;;10292589;28;20259;-61
2023/12/17 06:49:54;;;;;;;4.43;3.33;;;;;;;;;;10292164;28;20034;-62
2023/12/17 06:54:54;;;;;;;5.63;3.78;;;;;;;;;;10292528;28;20061;-62
2023/12/17 06:59:55;;;;;;;4.28;3.22;;;;;;;;;;10292876;28;20026;-62
2023/12/17 07:04:55;;;;;;;3.95;3.30;;;;;;;;;;10292266;28;20399;-62
2023/12/17 07:09:57;;;;;;;6.68;3.35;;;;;;;;;;10291874;28;20053;-62
2023/12/17 07:14:58;;;;;;;3.97;3.00;;;;;;;;;;10291946;28;20026;-62
2023/12/17 07:19:58;;;;;;;3.80;3.00;;;;;;;;;;10291053;28;20090;-62
2023/12/17 07:24:59;;;;;;;7.28;3.15;;;;;;;;;;10291347;28;20031;-62
2023/12/17 07:30:00;;;;;;;4.05;2.97;;;;;;;;;;10291270;28;20386;-62
2023/12/17 07:35:00;;;;;;;4.20;2.97;;;;;;;;;;10290665;28;20035;-62
2023/12/17 07:40:01;;;;;;;3.03;2.70;;;;;;;;;;10290432;28;20050;-62
2023/12/17 07:45:01;;;;;;;3.20;2.80;;;;;;;;;;10289751;28;20475;-62
2023/12/17 07:50:02;;;;;;;5.72;3.45;;;;;;;;;;10284184;28;20027;-62
2023/12/17 07:55:10;;;;;;;4.25;2.95;;;;;;;;;;10274975;28;20126;-62
2023/12/17 08:00:18;;;;;;;3.47;2.85;;;;;;;;;;10272996;28;20027;-62
2023/12/17 08:05:18;;;;;;;4.70;3.50;;;;;;;;;;10273159;28;20023;-64
2023/12/17 08:10:19;;;;;;;4.60;3.75;;;;;;;;;;10274472;28;20037;-62
2023/12/17 08:15:20;;;;;;;6.40;4.60;;;;;;;;;;10273762;28;20045;-60
2023/12/17 08:20:21;;;;;;;5.80;4.53;;;;;;;;;;10273833;28;20037;-62
2023/12/17 08:25:21;;;;;;;9.95;4.80;;;;;;;;;;10273069;28;20475;-63
2023/12/17 08:30:22;;;;;;;13.50;5.65;;;;;;;;;;10273686;28;20027;-63
2023/12/17 08:35:22;;;;;;;6.80;5.07;;;;;;;;;;10272380;28;20164;-62
2023/12/17 08:40:23;;;;;;;7.22;5.07;;;;;;;;;;10280895;28;20092;-63
2023/12/17 08:45:24;;;;;;;9.75;5.60;;;;;;;;;;10287835;28;20047;-63
2023/12/17 08:50:25;;;;;;;8.90;5.22;;;;;;;;;;10287398;28;20086;-62
2023/12/17 08:55:26;;;;;;;9.43;5.55;;;;;;;;;;10287479;28;20166;-62
2023/12/17 09:00:26;;;;;;;8.85;5.82;;;;;;;;;;10287392;28;20039;-61
2023/12/17 09:05:27;;;;;;;8.43;5.88;;;;;;;;;;10287201;28;20085;-62
2023/12/17 09:10:28;;;;;;;18.80;5.55;;;;;;;;;;10287328;28;20037;-60
2023/12/17 09:15:29;;;;;;;9.57;5.38;;;;;;;;;;10286544;28;20031;-60
2023/12/17 09:20:30;;;;;;;10.63;5.30;;;;;;;;;;10285714;28;20473;-61
2023/12/17 09:25:30;;;;;;;15.18;4.70;;;;;;;;;;10287372;28;20038;-62
2023/12/17 09:30:31;;;;;;;11.30;5.13;;;;;;;;;;10286928;28;20026;-62
2023/12/17 09:35:31;;;;;;;11.23;4.70;;;;;;;;;;10286777;28;20043;-62
2023/12/17 09:40:32;;;;;;;8.43;4.95;;;;;;;;;;10286629;28;20066;-62
2023/12/17 09:45:33;;;;;;;10.27;5.53;;;;;;;;;;10286680;28;20102;-62
2023/12/17 09:50:33;;;;;;;9.75;5.38;;;;;;;;;;10287014;28;20089;-61
2023/12/17 09:55:35;;;;;;;8.55;4.70;;;;;;;;;;10286687;28;20038;-61
2023/12/17 10:00:36;;;;;;;9.82;4.82;;;;;;;;;;10286835;28;20132;-61
2023/12/17 10:05:36;;;;;;;9.65;5.22;;;;;;;;;;10286738;28;20118;-61
2023/12/17 10:10:37;;;;;;;6.65;4.85;;;;;;;;;;10289640;28;20031;-61
2023/12/17 10:15:38;;;;;;;7.72;4.65;;;;;;;;;;10293821;28;20033;-61
2023/12/17 10:20:38;;;;;;;11.68;4.13;;;;;;;;;;10276455;28;20023;-62
2023/12/17 10:25:40;;;;;;;10.85;4.75;;;;;;;;;;10293665;28;20478;-62
2023/12/17 10:30:41;;;;;;;10.18;4.03;;;;;;;;;;10293269;28;20379;-62
2023/12/17 10:35:42;;;;;;;9.32;4.40;;;;;;;;;;10293441;28;20042;-62
2023/12/17 10:40:43;;;;;;;9.35;4.05;;;;;;;;;;10293018;28;20047;-62
2023/12/17 10:45:44;;;;;;;8.60;4.38;;;;;;;;;;10275516;28;20039;-62
2023/12/17 10:50:47;;;;;;;12.80;4.25;;;;;;;;;;10275562;28;20069;-62
2023/12/17 10:55:48;;;;;;;8.60;4.10;;;;;;;;;;10275715;28;20045;-62
2023/12/17 11:00:49;;;;;;;10.07;4.55;;;;;;;;;;10292574;28;20023;-61
2023/12/17 11:05:55;;;;;;;6.45;4.13;;;;;;;;;;10275201;28;20101;-62
2023/12/17 11:10:58;;;;;;;5.60;3.70;;;;;;;;;;10291790;28;20023;-61
2023/12/17 11:16:29;;;;;;;9.95;4.40;;;;;;;;;;10292029;28;20043;-61
2023/12/17 11:21:30;;;;;;;7.35;3.83;;;;;;;;;;10274538;28;20137;-61
2023/12/17 11:26:40;;;;;;;4.45;3.47;;;;;;;;;;10291253;28;20050;-61
2023/12/17 11:31:41;;;;;;;5.72;4.00;;;;;;;;;;10291092;28;20027;-61
2023/12/17 11:36:42;;;;;;;8.77;3.75;;;;;;;;;;10290820;28;20543;-61
2023/12/17 11:41:43;;;;;;;5.47;3.95;;;;;;;;;;10291336;28;20442;-62
2023/12/17 11:46:48;;;;;;;7.15;3.80;;;;;;;;;;10290535;28;20027;-61
2023/12/17 11:51:48;;;;;;;9.80;3.95;;;;;;;;;;10290236;28;20486;-62
2023/12/17 11:56:49;;;;;;;6.65;3.70;;;;;;;;;;10273668;28;20045;-61
2023/12/17 12:01:53;;;;;;;7.18;3.75;;;;;;;;;;10290216;28;20498;-61
2023/12/17 12:06:54;;;;;;;5.90;4.13;;;;;;;;;;10289712;28;20027;-61
2023/12/17 12:11:54;;;;;;;6.70;3.58;;;;;;;;;;10289788;28;20152;-61
2023/12/17 12:16:55;;;;;;;6.00;3.97;;;;;;;;;;10289535;28;20187;-61
2023/12/17 12:21:56;;;;;;;4.13;3.53;;;;;;;;;;10288385;28;20034;-61
2023/12/17 12:26:57;;;;;;;5.50;3.45;;;;;;;;;;10288651;28;20191;-61
2023/12/17 12:31:59;;;;;;;3.90;2.83;;;;;;;;;;10287835;28;20030;-62
2023/12/17 12:37:00;;;;;;;6.20;3.55;;;;;;;;;;10288102;28;20118;-62
2023/12/17 12:42:00;;;;;;;6.25;3.55;;;;;;;;;;10281289;28;20518;-62
2023/12/17 12:47:01;;;;;;;5.45;3.50;;;;;;;;;;10264047;28;20483;-62
2023/12/17 12:52:02;;;;;;;5.47;4.00;;;;;;;;;;10287336;28;20049;-62
2023/12/17 12:57:03;;;;;;;7.50;3.95;;;;;;;;;;10276638;28;20533;-61
2023/12/17 13:02:03;;;;;;;8.65;3.75;;;;;;;;;;10283337;28;20109;-62
2023/12/17 13:07:04;;;;;;;14.43;4.20;;;;;;;;;;10286428;28;20031;-62
2023/12/17 13:12:05;;;;;;;6.93;3.58;;;;;;;;;;10288038;28;20275;-62
2023/12/17 13:17:06;;;;;;;14.57;4.18;;;;;;;;;;10283198;28;20475;-61
2023/12/17 13:22:06;;;;;;;11.48;3.95;;;;;;;;;;10287454;28;20034;-62
2023/12/17 13:27:07;;;;;;;9.98;3.70;;;;;;;;;;10283075;28;20027;-62
2023/12/17 13:32:07;;;;;;;8.60;3.45;;;;;;;;;;10284832;28;20031;-62
2023/12/17 13:37:09;;;;;;;11.80;3.97;;;;;;;;;;10277815;28;20550;-61
2023/12/17 13:42:09;;;;;;;9.27;3.78;;;;;;;;;;10283652;28;20130;-62
2023/12/17 13:47:10;;;;;;;8.63;4.28;;;;;;;;;;10291205;28;20470;-61
2023/12/17 13:52:11;;;;;;;14.18;4.00;;;;;;;;;;10285703;28;20434;-62
2023/12/17 13:57:17;;;;;;;9.55;4.32;;;;;;;;;;10293371;28;20202;-62
2023/12/17 14:02:19;;;;;;;16.88;3.95;;;;;;;;;;10292414;28;20066;-62
2023/12/17 14:07:20;;;;;;;9.35;4.03;;;;;;;;;;10271953;28;20035;-63
2023/12/17 14:12:20;;;;;;;10.05;4.43;;;;;;;;;;10275892;28;20031;-62
2023/12/17 14:17:21;;;;;;;13.77;4.40;;;;;;;;;;10282289;28;20042;-61
2023/12/17 14:22:22;;;;;;;19.92;4.97;;;;;;;;;;10284070;28;20062;-60
2023/12/17 14:27:23;;;;;;;15.95;4.25;;;;;;;;;;10286534;28;20074;-60
2023/12/17 14:32:24;;;;;;;14.48;4.18;;;;;;;;;;10290352;28;20493;-60
2023/12/17 14:37:25;;;;;;;12.55;4.13;;;;;;;;;;10285342;28;20030;-60
2023/12/17 14:42:26;;;;;;;17.00;4.50;;;;;;;;;;10292492;28;20043;-60
2023/12/17 14:47:27;;;;;;;14.63;3.90;;;;;;;;;;10291921;28;20027;-60
2023/12/17 14:52:28;;;;;;;10.32;3.92;;;;;;;;;;10276611;28;20035;-60
2023/12/17 14:57:31;;;;;;;7.38;4.00;;;;;;;;;;10281291;28;20059;-60
2023/12/17 15:02:33;;;;;;;9.60;4.18;;;;;;;;;;10289062;28;20106;-60
2023/12/17 15:07:33;;;;;;;11.07;3.50;;;;;;;;;;10292416;28;20025;-59
2023/12/17 15:12:34;;;;;;;9.98;3.83;;;;;;;;;;10292137;28;20136;-59
2023/12/17 15:17:35;;;;;;;13.20;3.92;;;;;;;;;;10291631;28;20674;-60
2023/12/17 15:22:36;;;;;;;5.68;3.70;;;;;;;;;;10276615;28;20578;-60
2023/12/17 15:27:37;;;;;;;10.65;3.88;;;;;;;;;;10285483;28;20030;-60
2023/12/17 15:32:38;;;;;;;4.97;3.33;;;;;;;;;;10278068;28;20109;-59
2023/12/17 15:37:41;;;;;;;7.40;3.50;;;;;;;;;;10273131;28;20386;-61
2023/12/17 15:42:42;;;;;;;8.73;3.42;;;;;;;;;;10272863;28;20463;-61
2023/12/17 15:47:43;;;;;;;8.13;4.65;;;;;;;;;;10275114;28;20022;-61
2023/12/17 15:52:44;;;;;;;9.05;4.00;;;;;;;;;;10274220;28;20039;-61
2023/12/17 15:57:47;;;;;;;6.95;3.83;;;;;;;;;;10273646;28;20359;-62
2023/12/17 16:02:47;;;;;;;5.88;3.53;;;;;;;;;;10251977;28;20031;-60
2023/12/17 16:07:50;;;;;;;5.38;3.30;;;;;;;;;;10280325;28;20035;-60
2023/12/17 16:12:51;;;;;;;5.80;3.10;;;;;;;;;;10284111;28;20066;-60
2023/12/17 16:17:53;;;;;;;7.90;3.88;;;;;;;;;;10277278;28;20058;-60
2023/12/17 16:22:54;;;;;;;10.88;4.20;;;;;;;;;;10279724;28;20035;-61
2023/12/17 16:27:54;;;;;;;8.40;3.75;;;;;;;;;;10280645;28;20113;-61
2023/12/17 16:32:55;;;;;;;12.98;4.38;;;;;;;;;;10276345;28;20038;-60
2023/12/17 16:37:55;;;;;;;10.57;4.00;;;;;;;;;;10277736;28;20610;-62
2023/12/17 16:42:56;;;;;;;13.18;3.85;;;;;;;;;;10287232;28;20046;-62
2023/12/17 16:47:57;;;;;;;18.52;4.93;;;;;;;;;;10287116;28;20108;-62
2023/12/17 16:52:58;;;;;;;7.70;3.67;;;;;;;;;;10288083;28;20031;-62
2023/12/17 16:58:01;;;;;;;11.50;3.80;;;;;;;;;;10287965;28;20031;-61
2023/12/17 17:03:02;;;;;;;6.70;3.97;;;;;;;;;;10287474;28;20027;-62
2023/12/17 17:08:03;;;;;;;10.50;4.07;;;;;;;;;;10287102;28;20051;-62
2023/12/17 17:13:04;;;;;;;8.68;4.05;;;;;;;;;;10287213;28;20042;-62
2023/12/17 17:18:05;;;;;;;6.53;4.00;;;;;;;;;;10286108;28;20058;-60
2023/12/17 17:23:05;;;;;;;5.20;3.63;;;;;;;;;;10286757;28;20034;-60
2023/12/17 17:28:06;;;;;;;14.02;3.80;;;;;;;;;;10286059;28;20019;-60
2023/12/17 17:33:06;;;;;;;8.98;3.55;;;;;;;;;;10287337;28;20111;-60
2023/12/17 17:38:07;;;;;;;8.15;3.65;;;;;;;;;;10286367;28;20039;-60
2023/12/17 17:43:08;;;;;;;10.73;4.30;;;;;;;;;;10284631;28;20027;-61
2023/12/17 17:48:08;;;;;;;9.80;4.10;;;;;;;;;;10285612;28;20043;-61
2023/12/17 17:53:09;;;;;;;9.98;3.95;;;;;;;;;;10284894;28;20039;-61
2023/12/17 17:58:10;;;;;;;8.68;3.88;;;;;;;;;;10284176;28;20039;-61
2023/12/17 18:03:10;;;;;;;9.43;3.78;;;;;;;;;;10284195;28;20023;-60
2023/12/17 18:08:14;;;;;;;7.88;3.38;;;;;;;;;;10284544;28;20093;-61
2023/12/17 18:13:14;;;;;;;7.82;4.82;;;;;;;;;;10283926;28;20136;-61
2023/12/17 18:18:15;;;;;;;4.20;3.80;;;;;;;;;;10284280;28;20121;-61
2023/12/17 18:23:18;;;;;;;12.00;3.88;;;;;;;;;;10283828;28;20376;-61
2023/12/17 18:28:18;;;;;;;6.15;4.30;;;;;;;;;;10284054;28;20279;-61
2023/12/17 18:33:19;;;;;;;9.38;3.90;;;;;;;;;;10289613;28;20264;-61
2023/12/17 18:38:20;;;;;;;4.38;3.65;;;;;;;;;;10251976;28;1122312;-61
2023/12/17 18:43:22;;;;;;;8.45;3.80;;;;;;;;;;10292943;28;20045;-61
2023/12/17 18:48:22;;;;;;;9.73;3.92;;;;;;;;;;10292536;28;20362;-61
2023/12/17 18:53:23;;;;;;;8.05;3.70;;;;;;;;;;10292418;28;20042;-61
2023/12/17 18:58:23;;;;;;;11.50;3.72;;;;;;;;;;10291877;28;20026;-61
2023/12/17 19:03:24;;;;;;;8.88;3.92;;;;;;;;;;10292070;28;20038;-61
2023/12/17 19:08:26;;;;;;;6.40;3.88;;;;;;;;;;10292474;28;20053;-61
2023/12/17 19:13:27;;;;;;;9.43;4.05;;;;;;;;;;10291764;28;20470;-61
2023/12/17 19:18:28;;;;;;;7.32;4.10;;;;;;;;;;10291553;28;20030;-61
2023/12/17 19:23:28;;;;;;;6.53;4.38;;;;;;;;;;10291841;28;20034;-61
2023/12/17 19:28:31;;;;;;;8.32;4.45;;;;;;;;;;10290992;28;20042;-60
2023/12/17 19:33:31;;;;;;;11.50;4.40;;;;;;;;;;10291472;28;20094;-61
2023/12/17 19:38:32;;;;;;;7.70;4.10;;;;;;;;;;10291086;28;20454;-60
2023/12/17 19:43:32;;;;;;;6.57;4.40;;;;;;;;;;10289513;28;20038;-61
2023/12/17 19:48:33;;;;;;;8.85;4.78;;;;;;;;;;10290552;28;20031;-60
2023/12/17 19:53:34;;;;;;;9.07;4.65;;;;;;;;;;10291175;28;20471;-60
2023/12/17 19:58:35;;;;;;;9.13;4.93;;;;;;;;;;10290309;28;20034;-60
2023/12/17 20:03:35;;;;;;;10.18;5.35;;;;;;;;;;10289752;28;20431;-60
2023/12/17 20:08:37;;;;;;;7.60;4.78;;;;;;;;;;10289453;28;20394;-60
2023/12/17 20:13:37;;;;;;;7.18;4.78;;;;;;;;;;10289706;28;20091;-60
2023/12/17 20:18:39;;;;;;;7.95;4.80;;;;;;;;;;10289486;28;20027;-62
2023/12/17 20:23:42;;;;;;;6.72;4.97;;;;;;;;;;10286603;28;20414;-62
2023/12/17 20:28:43;;;;;;;7.10;4.82;;;;;;;;;;10271108;28;20022;-60
2023/12/17 20:33:43;;;;;;;7.68;5.05;;;;;;;;;;10286705;28;20038;-61
2023/12/17 20:38:44;;;;;;;7.35;5.40;;;;;;;;;;10287170;28;20047;-61
2023/12/17 20:43:44;;;;;;;10.75;5.72;;;;;;;;;;10283035;28;20031;-60
2023/12/17 20:48:46;;;;;;;12.00;5.85;;;;;;;;;;10288248;28;20187;-61
2023/12/17 20:53:46;;;;;;;9.82;6.00;;;;;;;;;;10287540;28;20034;-61
2023/12/17 20:58:51;;;;;;;8.23;5.90;;;;;;;;;;10286628;28;20034;-62
2023/12/17 21:03:51;;;;;;;12.60;6.78;;;;;;;;;;10281939;28;20031;-61
2023/12/17 21:08:52;;;;;;;7.05;6.00;;;;;;;;;;10285946;28;20030;-62
2023/12/17 21:13:53;;;;;;;11.85;6.80;;;;;;;;;;10280533;28;20062;-61
2023/12/17 21:18:53;;;;;;;12.20;6.55;;;;;;;;;;10287228;28;20040;-62
2023/12/17 21:23:54;;;;;;;10.40;6.32;;;;;;;;;;10281376;28;20526;-61
2023/12/17 21:28:54;;;;;;;9.48;6.25;;;;;;;;;;10285773;28;20027;-61
2023/12/17 21:33:55;;;;;;;8.68;6.05;;;;;;;;;;10285969;28;20038;-61
2023/12/17 21:38:55;;;;;;;9.55;6.38;;;;;;;;;;10281119;28;20062;-61
2023/12/17 21:43:56;;;;;;;11.20;6.35;;;;;;;;;;10285534;28;20034;-60
2023/12/17 21:48:57;;;;;;;13.18;6.43;;;;;;;;;;10279625;28;20042;-61
2023/12/17 21:53:57;;;;;;;10.60;6.45;;;;;;;;;;10285573;28;20031;-60
2023/12/17 21:58:58;;;;;;;10.63;6.90;;;;;;;;;;10286693;28;20023;-61
2023/12/17 22:03:58;;;;;;;8.32;6.22;;;;;;;;;;10285153;28;20386;-60
2023/12/17 22:08:59;;;;;;;13.48;6.55;;;;;;;;;;10290213;28;20290;-61
2023/12/17 22:13:59;;;;;;;9.73;6.45;;;;;;;;;;10292062;28;20093;-60
2023/12/17 22:19:00;;;;;;;12.05;7.43;;;;;;;;;;10294033;28;20023;-59
2023/12/17 22:24:01;;;;;;;7.85;6.25;;;;;;;;;;10294252;28;20042;-59
2023/12/17 22:29:01;;;;;;;9.30;6.20;;;;;;;;;;10292346;28;20022;-60
2023/12/17 22:34:02;;;;;;;9.15;7.07;;;;;;;;;;10293614;28;20038;-60
2023/12/17 22:39:02;;;;;;;8.82;6.85;;;;;;;;;;10291937;28;20047;-60
2023/12/17 22:44:03;;;;;;;11.23;6.40;;;;;;;;;;10293130;28;20113;-59
2023/12/17 22:49:04;;;;;;;9.68;6.72;;;;;;;;;;10292645;28;20035;-59
2023/12/17 22:54:04;;;;;;;9.95;7.30;;;;;;;;;;10289561;28;20039;-59
2023/12/17 22:59:06;;;;;;;12.02;8.07;;;;;;;;;;10287118;28;20038;-60
2023/12/17 23:04:06;;;;;;;15.82;9.70;;;;;;;;;;10274123;28;20035;-59
2023/12/17 23:09:07;;;;;;;19.55;10.05;;;;;;;;;;10274270;28;20022;-60
2023/12/17 23:14:07;;;;;;;16.73;9.90;;;;;;;;;;10274327;28;20126;-59
2023/12/17 23:19:10;;;;;;;16.63;10.13;;;;;;;;;;10288923;28;20018;-59
2023/12/17 23:24:11;;;;;;;12.38;9.73;;;;;;;;;;10291055;28;20030;-59
2023/12/17 23:29:12;;;;;;;14.90;9.57;;;;;;;;;;10289797;28;20038;-60
2023/12/17 23:34:12;;;;;;;12.93;8.88;;;;;;;;;;10289116;28;20030;-60
2023/12/17 23:39:13;;;;;;;12.73;9.00;;;;;;;;;;10289261;28;20057;-60
2023/12/17 23:44:14;;;;;;;13.25;8.88;;;;;;;;;;10291010;28;20279;-60
2023/12/17 23:49:15;;;;;;;14.10;8.63;;;;;;;;;;10289851;28;20213;-59
2023/12/17 23:54:15;;;;;;;13.77;9.40;;;;;;;;;;10275371;28;20031;-61
2023/12/17 23:59:16;;;;;;;18.42;9.52;;;;;;;;;;10289472;28;20403;-59
